TimeCST,TemperatureF,Dew PointF,Humidity,Sea Level PressureIn,VisibilityMPH,Wind Direction,Wind SpeedMPH,Gust SpeedMPH,PrecipitationIn,Events,Conditions,WindDirDegrees,DateUTC
12:53 AM,27.0,19.9,75,30.14,10.0,North,12.7,-,N/A,,Overcast,350,2013-03-06 06:53:00
1:53 AM,27.0,19.9,75,30.16,10.0,NNW,11.5,-,N/A,,Overcast,340,2013-03-06 07:53:00
2:53 AM,28.0,21.0,75,30.17,10.0,NNW,12.7,-,N/A,,Overcast,340,2013-03-06 08:53:00
3:53 AM,28.0,21.9,78,30.19,10.0,NNW,13.8,-,N/A,,Overcast,330,2013-03-06 09:53:00
4:53 AM,28.0,21.9,78,30.21,10.0,North,12.7,-,N/A,,Overcast,350,2013-03-06 10:53:00
5:53 AM,28.4,23.0,80,30.17,10.0,NNE,6.9,-,N/A,,Overcast,20,2013-03-06 11:53:00
6:00 AM,27.0,23.0,85,30.16,10.0,North,6.9,-,N/A,,Overcast,10,2013-03-06 12:00:00
6:48 AM,28.4,23.0,80,30.21,10.0,NW,10.4,-,N/A,,Overcast,320,2013-03-06 12:48:00
6:53 AM,28.0,23.0,81,30.24,10.0,NNW,9.2,-,N/A,,Overcast,330,2013-03-06 12:53:00
7:30 AM,28.0,23.0,81,30.23,10.0,NW,12.7,-,N/A,,Overcast,320,2013-03-06 13:30:00
7:53 AM,28.0,24.1,85,30.25,7.0,NNW,9.2,-,N/A,,Overcast,340,2013-03-06 13:53:00
8:53 AM,30.0,25.0,82,30.26,10.0,North,9.2,-,N/A,,Overcast,360,2013-03-06 14:53:00
9:24 AM,30.9,25.0,79,30.24,10.0,North,6.9,-,N/A,,Overcast,350,2013-03-06 15:24:00
9:53 AM,30.9,25.0,79,30.28,10.0,NNW,8.1,-,N/A,,Overcast,330,2013-03-06 15:53:00
10:53 AM,30.9,25.0,79,30.28,10.0,NW,6.9,-,N/A,,Overcast,320,2013-03-06 16:53:00
11:53 AM,32.0,25.0,75,30.28,10.0,NW,9.2,-,N/A,,Overcast,310,2013-03-06 17:53:00
12:53 PM,32.0,25.0,75,30.28,9.0,NW,12.7,-,N/A,,Overcast,320,2013-03-06 18:53:00
1:53 PM,34.0,25.0,70,30.26,10.0,NW,6.9,-,N/A,,Overcast,310,2013-03-06 19:53:00
2:53 PM,33.1,25.0,72,30.27,10.0,NW,10.4,-,N/A,,Overcast,320,2013-03-06 20:53:00
3:53 PM,33.1,24.1,70,30.27,10.0,NNW,9.2,-,N/A,,Overcast,330,2013-03-06 21:53:00
4:53 PM,33.1,25.0,72,30.27,10.0,NW,4.6,-,N/A,,Overcast,320,2013-03-06 22:53:00
5:37 PM,33.1,26.1,75,30.25,10.0,NW,3.5,-,N/A,,Overcast,310,2013-03-06 23:37:00
5:53 PM,33.1,25.0,72,30.28,10.0,NW,3.5,-,N/A,,Overcast,310,2013-03-06 23:53:00
6:53 PM,32.0,25.0,75,30.30,10.0,Calm,Calm,-,N/A,,Overcast,0,2013-03-07 00:53:00
7:53 PM,30.9,26.1,82,30.30,10.0,Calm,Calm,-,N/A,,Overcast,0,2013-03-07 01:53:00
8:53 PM,32.0,25.0,75,30.31,10.0,Calm,Calm,-,N/A,,Overcast,0,2013-03-07 02:53:00
9:16 PM,30.9,26.1,82,30.28,10.0,Calm,Calm,-,N/A,,Overcast,0,2013-03-07 03:16:00
9:53 PM,30.9,25.0,79,30.31,10.0,NNE,3.5,-,N/A,,Overcast,30,2013-03-07 03:53:00
10:07 PM,30.9,26.1,82,30.28,10.0,ENE,3.5,-,N/A,,Overcast,60,2013-03-07 04:07:00
10:53 PM,30.0,26.1,85,30.31,10.0,NE,6.9,-,N/A,,Overcast,40,2013-03-07 04:53:00
11:53 PM,28.9,24.1,82,30.31,10.0,NNE,10.4,-,N/A,,Overcast,20,2013-03-07 05:53:00